createdAt,value
2022-10-09T00:01:12.201Z,8.27
2022-10-09T00:04:12.497Z,9.68
2022-10-09T00:07:10.911Z,9.13
2022-10-09T00:13:07.361Z,10.75
2022-10-09T00:19:06.322Z,10.88
2022-10-09T00:22:04.708Z,11.57
2022-10-09T00:25:03.781Z,9.95
2022-10-09T00:28:02.700Z,9.85
2022-10-09T00:31:05.946Z,9.98
2022-10-09T00:34:04.143Z,11.18
2022-10-09T00:37:02.721Z,10.98
2022-10-09T00:40:01.188Z,11.55
2022-10-09T00:43:00.210Z,11.23
2022-10-09T00:45:58.490Z,12.23
2022-10-09T00:49:10.710Z,14.38
2022-10-09T00:52:09.040Z,14.63
2022-10-09T00:55:09.632Z,14.48
2022-10-09T00:58:07.986Z,15.73
2022-10-09T01:01:06.562Z,14.40
2022-10-09T01:04:04.813Z,15.75
2022-10-09T01:07:13.402Z,14.80
2022-10-09T01:10:38.161Z,13.57
2022-10-09T01:13:47.741Z,14.18
2022-10-09T01:17:08.470Z,14.07
2022-10-09T01:20:27.069Z,12.77
2022-10-09T01:23:53.514Z,12.57
2022-10-09T01:26:58.582Z,12.48
2022-10-09T01:30:07.800Z,12.38
2022-10-09T01:33:07.443Z,12.00
2022-10-09T01:36:07.722Z,10.63
2022-10-09T01:39:09.093Z,9.05
2022-10-09T01:42:07.825Z,7.88
2022-10-09T01:45:06.771Z,8.13
2022-10-09T01:48:05.532Z,9.35
2022-10-09T01:51:05.419Z,9.20
2022-10-09T01:54:07.535Z,9.18
2022-10-09T01:57:09.091Z,8.88
2022-10-09T02:00:11.295Z,7.38
2022-10-09T02:03:14.012Z,6.22
2022-10-09T02:06:14.762Z,6.30
2022-10-09T02:09:16.684Z,7.03
2022-10-09T02:12:17.423Z,7.03
2022-10-09T02:15:16.612Z,7.65
2022-10-09T02:18:18.798Z,7.25
2022-10-09T02:21:23.804Z,7.57
2022-10-09T02:24:23.866Z,8.73
2022-10-09T02:27:23.566Z,8.50
2022-10-09T02:30:22.334Z,9.18
2022-10-09T02:33:30.849Z,8.95
2022-10-09T02:36:30.264Z,9.60
2022-10-09T02:39:28.776Z,7.68
2022-10-09T02:42:26.928Z,7.95
2022-10-09T02:45:25.826Z,7.65
2022-10-09T02:48:24.531Z,7.20
2022-10-09T02:51:23.294Z,7.47
2022-10-09T02:54:21.686Z,6.30
2022-10-09T02:57:20.095Z,6.40
2022-10-09T03:03:16.708Z,6.57
2022-10-09T03:06:18.747Z,5.68
2022-10-09T03:09:17.264Z,6.18
2022-10-09T03:12:21.539Z,7.13
2022-10-09T03:15:19.952Z,6.72
2022-10-09T03:21:19.148Z,5.95
2022-10-09T03:24:17.330Z,5.00
2022-10-09T03:27:15.866Z,4.32
2022-10-09T03:30:14.504Z,5.03
2022-10-09T03:33:12.916Z,4.57
2022-10-09T03:39:09.916Z,5.22
2022-10-09T03:42:08.011Z,5.88
2022-10-09T03:45:06.860Z,4.47
2022-10-09T03:48:05.169Z,4.25
2022-10-09T03:51:03.943Z,4.00
2022-10-09T03:54:02.638Z,4.03
2022-10-09T03:57:01.034Z,4.75
2022-10-09T03:59:59.366Z,3.92
2022-10-09T04:02:57.895Z,4.95
2022-10-09T04:05:56.058Z,4.38
2022-10-09T04:08:54.539Z,4.65
2022-10-09T04:11:52.936Z,4.60
2022-10-09T04:14:51.377Z,4.60
2022-10-09T04:17:49.489Z,4.80
2022-10-09T04:20:51.932Z,4.50
2022-10-09T04:23:51.144Z,3.65
2022-10-09T04:26:49.584Z,5.00
2022-10-09T04:29:48.023Z,4.95
2022-10-09T04:32:48.724Z,4.97
2022-10-09T04:35:50.501Z,3.60
2022-10-09T04:38:48.938Z,4.95
2022-10-09T04:41:47.382Z,4.97
2022-10-09T04:44:45.852Z,5.85
2022-10-09T04:47:44.076Z,4.90
2022-10-09T04:50:42.519Z,5.05
2022-10-09T04:53:41.599Z,5.88
2022-10-09T04:56:40.319Z,5.68
2022-10-09T04:59:38.440Z,6.50
2022-10-09T05:02:36.944Z,6.10
2022-10-09T05:05:35.233Z,6.75
2022-10-09T05:08:34.191Z,6.55
2022-10-09T05:11:32.297Z,6.97
2022-10-09T05:14:30.737Z,7.80
2022-10-09T05:17:28.924Z,7.40
2022-10-09T05:20:27.591Z,6.57
2022-10-09T05:23:26.043Z,5.85
2022-10-09T05:26:25.860Z,5.57
2022-10-09T05:29:23.994Z,5.95
2022-10-09T05:32:22.343Z,4.78
2022-10-09T05:35:20.479Z,5.25
2022-10-09T05:38:19.744Z,4.60
2022-10-09T05:41:20.137Z,4.22
2022-10-09T05:44:18.778Z,4.40
2022-10-09T05:47:20.185Z,4.78
2022-10-09T05:50:18.649Z,5.53
2022-10-09T05:53:16.754Z,5.60
2022-10-09T05:56:22.431Z,4.68
2022-10-09T05:59:20.714Z,4.97
2022-10-09T06:02:19.401Z,4.65
2022-10-09T06:05:17.614Z,4.95
2022-10-09T06:08:16.139Z,5.30
2022-10-09T06:11:17.668Z,4.32
2022-10-09T06:14:17.177Z,4.07
2022-10-09T06:17:15.352Z,5.45
2022-10-09T06:20:13.791Z,4.60
2022-10-09T06:23:11.912Z,4.70
2022-10-09T06:26:13.260Z,4.82
2022-10-09T06:29:11.371Z,3.72
2022-10-09T06:32:10.102Z,3.97
2022-10-09T06:35:08.888Z,3.45
2022-10-09T06:38:07.587Z,3.58
2022-10-09T06:41:09.199Z,3.05
2022-10-09T06:44:16.385Z,4.10
2022-10-09T06:47:15.059Z,3.20
2022-10-09T06:50:13.465Z,3.28
2022-10-09T06:53:11.590Z,2.97
2022-10-09T06:56:11.050Z,2.85
2022-10-09T06:59:10.734Z,3.22
2022-10-09T07:02:09.903Z,3.10
2022-10-09T07:05:08.462Z,4.47
2022-10-09T07:08:07.023Z,3.35
2022-10-09T07:11:15.506Z,3.10
2022-10-09T07:14:16.224Z,3.08
2022-10-09T07:17:14.358Z,2.70
2022-10-09T07:20:12.971Z,2.80
2022-10-09T07:23:11.039Z,2.85
2022-10-09T07:26:13.173Z,2.88
2022-10-09T07:29:13.778Z,3.67
2022-10-09T07:32:12.408Z,3.05
2022-10-09T07:35:10.649Z,3.60
2022-10-09T07:38:09.096Z,3.08
2022-10-09T07:41:10.434Z,3.42
2022-10-09T07:44:08.970Z,3.78
2022-10-09T07:47:07.497Z,3.13
2022-10-09T07:50:06.539Z,2.75
2022-10-09T07:53:05.047Z,2.40
2022-10-09T07:56:04.841Z,2.72
2022-10-09T07:59:06.730Z,3.00
2022-10-09T08:02:05.352Z,3.22
2022-10-09T08:05:03.842Z,3.08
2022-10-09T08:08:02.423Z,2.95
2022-10-09T08:11:01.199Z,3.65
2022-10-09T08:13:59.911Z,3.20
2022-10-09T08:16:58.060Z,4.20
2022-10-09T08:19:58.414Z,3.38
2022-10-09T08:22:56.530Z,5.57
2022-10-09T08:25:55.330Z,2.90
2022-10-09T08:28:55.531Z,4.20
2022-10-09T08:31:54.786Z,3.13
2022-10-09T08:34:53.511Z,3.03
2022-10-09T08:37:52.109Z,2.92
2022-10-09T08:40:58.449Z,3.60
2022-10-09T08:44:03.785Z,3.63
2022-10-09T08:47:09.811Z,3.63
2022-10-09T08:50:19.262Z,3.90
2022-10-09T08:53:34.815Z,3.47
2022-10-09T08:56:34.646Z,3.42
2022-10-09T08:59:33.162Z,4.45
2022-10-09T09:02:54.513Z,3.88
2022-10-09T09:06:14.825Z,5.63
2022-10-09T09:09:53.234Z,4.30
2022-10-09T09:12:57.728Z,3.88
2022-10-09T09:16:12.315Z,3.88
2022-10-09T09:19:43.559Z,3.60
2022-10-09T09:22:48.083Z,3.80
2022-10-09T09:25:46.727Z,3.22
2022-10-09T09:28:46.269Z,3.47
2022-10-09T09:31:46.724Z,3.05
2022-10-09T09:34:45.750Z,3.10
2022-10-09T09:37:44.073Z,4.22
2022-10-09T09:40:47.195Z,3.97
2022-10-09T09:43:45.812Z,3.22
2022-10-09T09:46:46.953Z,3.50
2022-10-09T09:50:01.923Z,3.22
2022-10-09T09:53:06.444Z,3.83
2022-10-09T09:56:05.286Z,3.05
2022-10-09T09:59:04.167Z,3.42
2022-10-09T10:02:23.023Z,3.53
2022-10-09T10:05:26.571Z,3.55
2022-10-09T10:08:29.253Z,4.07
2022-10-09T10:11:28.551Z,3.80
2022-10-09T10:14:28.406Z,3.50
2022-10-09T10:17:30.800Z,4.32
2022-10-09T10:20:30.846Z,2.90
2022-10-09T10:23:52.122Z,4.72
2022-10-09T10:27:00.704Z,2.60
2022-10-09T10:30:02.971Z,3.80
2022-10-09T10:33:14.896Z,4.15
2022-10-09T10:36:13.400Z,9.65
2022-10-09T10:39:25.597Z,9.02
2022-10-09T10:42:42.467Z,5.15
2022-10-09T10:46:03.584Z,8.43
2022-10-09T10:49:02.314Z,4.25
2022-10-09T10:52:29.761Z,4.05
2022-10-09T10:55:40.821Z,3.45
2022-10-09T10:58:54.655Z,4.25
2022-10-09T11:02:14.717Z,3.25
2022-10-09T11:05:31.669Z,3.40
2022-10-09T11:08:51.662Z,3.92
2022-10-09T11:12:00.311Z,4.63
2022-10-09T11:15:17.358Z,3.28
2022-10-09T11:18:36.827Z,4.25
2022-10-09T11:21:55.110Z,11.20
2022-10-09T11:25:08.690Z,4.88
2022-10-09T11:28:14.024Z,5.50
2022-10-09T11:31:17.199Z,3.92
2022-10-09T11:34:22.155Z,3.70
2022-10-09T11:37:25.983Z,5.80
2022-10-09T11:40:31.169Z,4.32
